sensor_id;sensor_type;location;lat;lon;timestamp;pressure;altitude;pressure_sealevel;temperature;humidity
71151;BME280;59071;42.138;24.768;2023-08-08T00:00:48;99219.00;;;25.70;42.81
71151;BME280;59071;42.138;24.768;2023-08-08T00:03:13;99215.19;;;25.89;42.50
71151;BME280;59071;42.138;24.768;2023-08-08T00:05:39;99212.91;;;25.65;42.82
71151;BME280;59071;42.138;24.768;2023-08-08T00:08:05;99212.56;;;25.66;42.64
71151;BME280;59071;42.138;24.768;2023-08-08T00:10:31;99210.50;;;25.63;43.15
71151;BME280;59071;42.138;24.768;2023-08-08T00:12:56;99217.38;;;25.69;42.63
71151;BME280;59071;42.138;24.768;2023-08-08T00:15:22;99214.47;;;25.57;43.25
71151;BME280;59071;42.138;24.768;2023-08-08T00:17:47;99214.34;;;25.71;43.04
71151;BME280;59071;42.138;24.768;2023-08-08T00:20:13;99197.44;;;25.43;43.35
71151;BME280;59071;42.138;24.768;2023-08-08T00:22:38;99213.72;;;25.25;44.20
71151;BME280;59071;42.138;24.768;2023-08-08T00:25:04;99215.06;;;25.45;43.76
71151;BME280;59071;42.138;24.768;2023-08-08T00:27:29;99218.69;;;25.23;44.35
71151;BME280;59071;42.138;24.768;2023-08-08T00:29:54;99222.44;;;25.45;43.95
71151;BME280;59071;42.138;24.768;2023-08-08T00:32:20;99225.28;;;25.31;44.43
71151;BME280;59071;42.138;24.768;2023-08-08T00:34:46;99219.25;;;25.20;45.05
71151;BME280;59071;42.138;24.768;2023-08-08T00:37:11;99225.41;;;25.26;45.36
71151;BME280;59071;42.138;24.768;2023-08-08T00:39:37;99225.34;;;25.48;44.66
71151;BME280;59071;42.138;24.768;2023-08-08T00:42:02;99221.97;;;25.43;45.14
71151;BME280;59071;42.138;24.768;2023-08-08T00:44:28;99231.28;;;25.50;45.10
71151;BME280;59071;42.138;24.768;2023-08-08T00:46:54;99225.16;;;25.45;45.26
71151;BME280;59071;42.138;24.768;2023-08-08T00:49:20;99224.91;;;25.24;46.09
71151;BME280;59071;42.138;24.768;2023-08-08T00:51:46;99227.88;;;25.36;45.96
71151;BME280;59071;42.138;24.768;2023-08-08T00:54:13;99227.81;;;25.27;46.09
71151;BME280;59071;42.138;24.768;2023-08-08T00:56:38;99225.16;;;25.45;45.72
71151;BME280;59071;42.138;24.768;2023-08-08T00:59:04;99223.75;;;25.56;45.61
71151;BME280;59071;42.138;24.768;2023-08-08T01:01:29;99238.44;;;25.15;46.56
71151;BME280;59071;42.138;24.768;2023-08-08T01:03:55;99233.31;;;24.82;47.52
71151;BME280;59071;42.138;24.768;2023-08-08T01:09:36;99238.72;;;24.73;48.20
71151;BME280;59071;42.138;24.768;2023-08-08T01:12:02;99237.34;;;24.48;48.77
71151;BME280;59071;42.138;24.768;2023-08-08T01:14:29;99240.84;;;24.85;47.97
71151;BME280;59071;42.138;24.768;2023-08-08T01:16:57;99246.41;;;24.80;48.12
71151;BME280;59071;42.138;24.768;2023-08-08T01:19:27;99238.66;;;24.51;48.83
71151;BME280;59071;42.138;24.768;2023-08-08T01:21:54;99245.84;;;24.47;49.28
71151;BME280;59071;42.138;24.768;2023-08-08T01:24:23;99255.75;;;24.29;49.67
71151;BME280;59071;42.138;24.768;2023-08-08T01:26:51;99255.59;;;24.11;49.99
71151;BME280;59071;42.138;24.768;2023-08-08T01:29:16;99268.50;;;24.06;49.86
71151;BME280;59071;42.138;24.768;2023-08-08T01:31:41;99256.63;;;23.46;51.00
71151;BME280;59071;42.138;24.768;2023-08-08T01:34:07;99266.88;;;23.63;50.26
71151;BME280;59071;42.138;24.768;2023-08-08T01:36:43;99266.56;;;23.51;50.45
71151;BME280;59071;42.138;24.768;2023-08-08T01:39:14;99268.28;;;23.33;50.91
71151;BME280;59071;42.138;24.768;2023-08-08T01:41:42;99275.34;;;23.15;51.03
71151;BME280;59071;42.138;24.768;2023-08-08T01:44:10;99273.19;;;23.31;50.85
71151;BME280;59071;42.138;24.768;2023-08-08T01:46:36;99276.22;;;23.29;51.06
71151;BME280;59071;42.138;24.768;2023-08-08T01:49:03;99277.41;;;23.37;50.92
71151;BME280;59071;42.138;24.768;2023-08-08T01:51:29;99282.25;;;22.74;52.51
71151;BME280;59071;42.138;24.768;2023-08-08T01:53:54;99277.84;;;22.78;52.72
71151;BME280;59071;42.138;24.768;2023-08-08T01:56:20;99280.69;;;22.87;52.59
71151;BME280;59071;42.138;24.768;2023-08-08T01:58:45;99276.00;;;23.39;51.15
71151;BME280;59071;42.138;24.768;2023-08-08T02:01:11;99273.50;;;22.96;52.31
71151;BME280;59071;42.138;24.768;2023-08-08T02:03:36;99274.06;;;22.93;52.33
71151;BME280;59071;42.138;24.768;2023-08-08T02:06:01;99283.41;;;23.20;52.05
71151;BME280;59071;42.138;24.768;2023-08-08T02:08:27;99301.97;;;22.80;52.94
71151;BME280;59071;42.138;24.768;2023-08-08T02:10:52;99297.53;;;22.84;52.73
71151;BME280;59071;42.138;24.768;2023-08-08T02:13:18;99299.75;;;22.82;52.81
71151;BME280;59071;42.138;24.768;2023-08-08T02:15:43;99303.03;;;22.79;52.95
71151;BME280;59071;42.138;24.768;2023-08-08T02:18:09;99292.06;;;23.22;51.85
71151;BME280;59071;42.138;24.768;2023-08-08T02:20:36;99314.34;;;23.05;52.13
71151;BME280;59071;42.138;24.768;2023-08-08T02:23:02;99308.13;;;22.48;53.53
71151;BME280;59071;42.138;24.768;2023-08-08T02:25:27;99313.72;;;22.56;53.76
71151;BME280;59071;42.138;24.768;2023-08-08T02:27:53;99321.47;;;22.20;54.92
71151;BME280;59071;42.138;24.768;2023-08-08T02:30:18;99328.13;;;22.33;54.73
71151;BME280;59071;42.138;24.768;2023-08-08T02:32:43;99328.50;;;22.45;54.16
71151;BME280;59071;42.138;24.768;2023-08-08T02:35:09;99317.38;;;22.47;53.90
71151;BME280;59071;42.138;24.768;2023-08-08T02:37:34;99326.81;;;22.49;53.54
71151;BME280;59071;42.138;24.768;2023-08-08T02:40:00;99323.50;;;22.52;53.73
71151;BME280;59071;42.138;24.768;2023-08-08T02:42:25;99334.72;;;22.21;54.87
71151;BME280;59071;42.138;24.768;2023-08-08T02:44:51;99338.97;;;22.33;54.66
71151;BME280;59071;42.138;24.768;2023-08-08T02:47:16;99343.94;;;22.01;55.71
71151;BME280;59071;42.138;24.768;2023-08-08T02:49:41;99341.38;;;22.10;55.85
71151;BME280;59071;42.138;24.768;2023-08-08T02:52:07;99340.84;;;22.08;56.04
71151;BME280;59071;42.138;24.768;2023-08-08T02:54:32;99347.53;;;22.16;55.82
71151;BME280;59071;42.138;24.768;2023-08-08T02:56:58;99354.97;;;22.29;55.57
71151;BME280;59071;42.138;24.768;2023-08-08T02:59:23;99353.19;;;22.19;55.73
71151;BME280;59071;42.138;24.768;2023-08-08T03:01:49;99358.88;;;22.18;55.92
71151;BME280;59071;42.138;24.768;2023-08-08T03:04:14;99343.75;;;21.93;56.83
71151;BME280;59071;42.138;24.768;2023-08-08T03:06:40;99347.16;;;22.03;56.65
71151;BME280;59071;42.138;24.768;2023-08-08T03:09:05;99358.31;;;21.97;57.04
71151;BME280;59071;42.138;24.768;2023-08-08T03:11:31;99357.25;;;21.98;57.18
71151;BME280;59071;42.138;24.768;2023-08-08T03:13:56;99374.41;;;21.59;58.82
71151;BME280;59071;42.138;24.768;2023-08-08T03:16:22;99375.78;;;21.85;58.27
71151;BME280;59071;42.138;24.768;2023-08-08T03:18:47;99373.56;;;21.63;59.26
71151;BME280;59071;42.138;24.768;2023-08-08T03:21:13;99378.91;;;21.44;60.08
71151;BME280;59071;42.138;24.768;2023-08-08T03:23:38;99385.44;;;21.67;59.23
71151;BME280;59071;42.138;24.768;2023-08-08T03:26:03;99389.53;;;21.65;59.64
71151;BME280;59071;42.138;24.768;2023-08-08T03:28:29;99403.44;;;21.53;60.21
71151;BME280;59071;42.138;24.768;2023-08-08T03:30:54;99400.31;;;21.70;60.02
71151;BME280;59071;42.138;24.768;2023-08-08T03:33:20;99417.56;;;21.79;59.68
71151;BME280;59071;42.138;24.768;2023-08-08T03:35:45;99428.50;;;22.22;58.23
71151;BME280;59071;42.138;24.768;2023-08-08T03:38:10;99432.50;;;22.30;58.33
71151;BME280;59071;42.138;24.768;2023-08-08T03:40:36;99430.78;;;22.39;57.73
71151;BME280;59071;42.138;24.768;2023-08-08T03:43:01;99426.94;;;22.64;57.03
71151;BME280;59071;42.138;24.768;2023-08-08T03:45:28;99438.81;;;22.20;58.66
71151;BME280;59071;42.138;24.768;2023-08-08T03:47:53;99441.94;;;22.33;59.04
71151;BME280;59071;42.138;24.768;2023-08-08T03:50:20;99445.84;;;22.70;58.15
71151;BME280;59071;42.138;24.768;2023-08-08T03:52:45;99456.25;;;22.62;59.29
71151;BME280;59071;42.138;24.768;2023-08-08T03:55:11;99466.38;;;22.76;58.76
71151;BME280;59071;42.138;24.768;2023-08-08T03:57:36;99471.00;;;22.75;58.95
71151;BME280;59071;42.138;24.768;2023-08-08T04:00:02;99472.31;;;22.78;58.66
71151;BME280;59071;42.138;24.768;2023-08-08T04:02:27;99479.28;;;22.41;60.02
71151;BME280;59071;42.138;24.768;2023-08-08T04:04:53;99484.78;;;22.31;60.00
71151;BME280;59071;42.138;24.768;2023-08-08T04:07:19;99489.41;;;22.30;59.83
71151;BME280;59071;42.138;24.768;2023-08-08T04:09:44;99488.13;;;22.22;60.17
71151;BME280;59071;42.138;24.768;2023-08-08T04:12:10;99496.69;;;21.71;61.26
71151;BME280;59071;42.138;24.768;2023-08-08T04:14:35;99496.75;;;21.61;61.38
71151;BME280;59071;42.138;24.768;2023-08-08T04:17:01;99511.41;;;21.60;61.09
71151;BME280;59071;42.138;24.768;2023-08-08T04:19:26;99517.22;;;21.77;60.70
71151;BME280;59071;42.138;24.768;2023-08-08T04:21:51;99523.63;;;21.57;63.94
71151;BME280;59071;42.138;24.768;2023-08-08T04:24:17;99539.09;;;21.52;66.44
71151;BME280;59071;42.138;24.768;2023-08-08T04:26:42;99534.78;;;21.45;68.12
71151;BME280;59071;42.138;24.768;2023-08-08T04:29:08;99540.81;;;21.27;69.82
71151;BME280;59071;42.138;24.768;2023-08-08T04:31:33;99549.50;;;21.24;70.94
71151;BME280;59071;42.138;24.768;2023-08-08T04:33:59;99540.47;;;21.39;71.41
71151;BME280;59071;42.138;24.768;2023-08-08T04:36:29;99539.34;;;21.00;72.47
71151;BME280;59071;42.138;24.768;2023-08-08T04:38:55;99536.03;;;21.08;72.61
71151;BME280;59071;42.138;24.768;2023-08-08T04:41:20;99542.13;;;20.80;73.30
71151;BME280;59071;42.138;24.768;2023-08-08T04:43:46;99534.84;;;20.70;75.13
71151;BME280;59071;42.138;24.768;2023-08-08T04:46:11;99539.16;;;20.81;74.24
71151;BME280;59071;42.138;24.768;2023-08-08T04:48:37;99534.31;;;20.68;74.45
71151;BME280;59071;42.138;24.768;2023-08-08T04:51:05;99558.38;;;20.69;75.30
71151;BME280;59071;42.138;24.768;2023-08-08T04:53:31;99557.03;;;20.62;75.82
71151;BME280;59071;42.138;24.768;2023-08-08T04:55:57;99575.44;;;20.14;78.59
71151;BME280;59071;42.138;24.768;2023-08-08T04:58:22;99579.25;;;20.13;78.55
71151;BME280;59071;42.138;24.768;2023-08-08T05:00:47;99583.28;;;20.00;78.81
71151;BME280;59071;42.138;24.768;2023-08-08T05:03:13;99589.09;;;19.45;81.23
71151;BME280;59071;42.138;24.768;2023-08-08T05:05:38;99597.78;;;19.63;79.92
71151;BME280;59071;42.138;24.768;2023-08-08T05:08:04;99599.72;;;19.78;80.00
71151;BME280;59071;42.138;24.768;2023-08-08T05:10:29;99609.72;;;19.77;80.51
71151;BME280;59071;42.138;24.768;2023-08-08T05:12:57;99619.19;;;19.90;79.11
71151;BME280;59071;42.138;24.768;2023-08-08T05:15:22;99623.75;;;19.79;79.32
71151;BME280;59071;42.138;24.768;2023-08-08T05:17:47;99627.03;;;20.12;77.57
71151;BME280;59071;42.138;24.768;2023-08-08T05:20:13;99638.13;;;20.31;76.88
71151;BME280;59071;42.138;24.768;2023-08-08T05:22:38;99636.53;;;20.66;74.79
71151;BME280;59071;42.138;24.768;2023-08-08T05:25:04;99642.44;;;20.42;75.85
71151;BME280;59071;42.138;24.768;2023-08-08T05:27:30;99640.28;;;20.14;76.84
71151;BME280;59071;42.138;24.768;2023-08-08T05:29:55;99649.22;;;20.24;77.02
71151;BME280;59071;42.138;24.768;2023-08-08T05:32:21;99655.13;;;20.21;77.38
71151;BME280;59071;42.138;24.768;2023-08-08T05:34:46;99653.28;;;20.68;74.37
71151;BME280;59071;42.138;24.768;2023-08-08T05:37:12;99667.03;;;20.20;77.29
71151;BME280;59071;42.138;24.768;2023-08-08T05:39:37;99675.66;;;20.27;76.15
71151;BME280;59071;42.138;24.768;2023-08-08T05:42:03;99682.66;;;19.98;77.20
71151;BME280;59071;42.138;24.768;2023-08-08T05:44:28;99677.53;;;20.06;77.26
71151;BME280;59071;42.138;24.768;2023-08-08T05:46:53;99685.66;;;20.01;77.19
71151;BME280;59071;42.138;24.768;2023-08-08T05:49:19;99681.06;;;20.17;76.26
71151;BME280;59071;42.138;24.768;2023-08-08T05:51:44;99682.97;;;20.32;74.16
71151;BME280;59071;42.138;24.768;2023-08-08T05:54:10;99685.16;;;20.50;73.82
71151;BME280;59071;42.138;24.768;2023-08-08T05:56:36;99692.25;;;19.63;76.63
71151;BME280;59071;42.138;24.768;2023-08-08T05:59:03;99696.28;;;19.02;80.07
71151;BME280;59071;42.138;24.768;2023-08-08T06:01:30;99692.47;;;18.98;81.14
71151;BME280;59071;42.138;24.768;2023-08-08T06:03:55;99704.75;;;19.26;80.19
71151;BME280;59071;42.138;24.768;2023-08-08T06:06:23;99699.00;;;19.60;77.82
71151;BME280;59071;42.138;24.768;2023-08-08T06:08:48;99707.28;;;20.11;75.27
71151;BME280;59071;42.138;24.768;2023-08-08T06:11:14;99703.75;;;20.16;75.92
71151;BME280;59071;42.138;24.768;2023-08-08T06:13:39;99703.47;;;20.07;74.38
71151;BME280;59071;42.138;24.768;2023-08-08T06:16:04;99687.31;;;20.28;74.34
71151;BME280;59071;42.138;24.768;2023-08-08T06:18:35;99690.81;;;20.54;73.16
71151;BME280;59071;42.138;24.768;2023-08-08T06:21:01;99697.03;;;20.29;73.84
71151;BME280;59071;42.138;24.768;2023-08-08T06:23:27;99705.69;;;20.41;73.67
71151;BME280;59071;42.138;24.768;2023-08-08T06:25:53;99703.25;;;20.40;72.83
71151;BME280;59071;42.138;24.768;2023-08-08T06:28:19;99708.66;;;20.45;72.44
71151;BME280;59071;42.138;24.768;2023-08-08T06:30:44;99711.38;;;20.45;72.09
71151;BME280;59071;42.138;24.768;2023-08-08T06:33:10;99702.72;;;20.79;71.01
71151;BME280;59071;42.138;24.768;2023-08-08T06:35:36;99704.88;;;20.92;70.65
71151;BME280;59071;42.138;24.768;2023-08-08T06:38:01;99699.97;;;21.15;70.02
71151;BME280;59071;42.138;24.768;2023-08-08T06:40:27;99700.78;;;21.15;69.66
71151;BME280;59071;42.138;24.768;2023-08-08T06:42:52;99684.56;;;21.15;68.61
71151;BME280;59071;42.138;24.768;2023-08-08T06:45:18;99691.25;;;21.28;68.18
71151;BME280;59071;42.138;24.768;2023-08-08T06:47:44;99687.19;;;21.36;67.69
71151;BME280;59071;42.138;24.768;2023-08-08T06:50:10;99697.72;;;21.47;68.79
71151;BME280;59071;42.138;24.768;2023-08-08T06:52:36;99688.00;;;21.46;68.56
71151;BME280;59071;42.138;24.768;2023-08-08T06:55:01;99691.84;;;21.20;69.38
71151;BME280;59071;42.138;24.768;2023-08-08T06:57:28;99698.16;;;21.75;66.74
71151;BME280;59071;42.138;24.768;2023-08-08T06:59:54;99693.06;;;21.58;68.72
71151;BME280;59071;42.138;24.768;2023-08-08T07:02:19;99699.06;;;22.05;66.85
71151;BME280;59071;42.138;24.768;2023-08-08T07:04:46;99702.34;;;22.02;66.62
71151;BME280;59071;42.138;24.768;2023-08-08T07:07:11;99698.69;;;21.77;68.10
71151;BME280;59071;42.138;24.768;2023-08-08T07:09:36;99702.66;;;21.95;66.44
71151;BME280;59071;42.138;24.768;2023-08-08T07:12:03;99696.81;;;22.17;65.65
71151;BME280;59071;42.138;24.768;2023-08-08T07:14:29;99690.75;;;22.36;64.89
71151;BME280;59071;42.138;24.768;2023-08-08T07:16:55;99689.19;;;22.64;63.81
71151;BME280;59071;42.138;24.768;2023-08-08T07:19:21;99705.13;;;22.65;63.18
71151;BME280;59071;42.138;24.768;2023-08-08T07:21:47;99695.88;;;22.72;64.30
71151;BME280;59071;42.138;24.768;2023-08-08T07:24:12;99698.72;;;22.86;63.85
71151;BME280;59071;42.138;24.768;2023-08-08T07:26:38;99705.31;;;23.09;63.15
71151;BME280;59071;42.138;24.768;2023-08-08T07:29:04;99703.25;;;22.66;62.48
71151;BME280;59071;42.138;24.768;2023-08-08T07:31:31;99710.34;;;22.91;61.49
71151;BME280;59071;42.138;24.768;2023-08-08T07:33:57;99709.34;;;23.11;62.02
71151;BME280;59071;42.138;24.768;2023-08-08T07:36:22;99712.88;;;23.12;62.47
71151;BME280;59071;42.138;24.768;2023-08-08T07:38:51;99709.66;;;23.10;62.50
71151;BME280;59071;42.138;24.768;2023-08-08T07:41:16;99704.28;;;22.99;61.45
71151;BME280;59071;42.138;24.768;2023-08-08T07:43:43;99712.06;;;23.35;59.99
71151;BME280;59071;42.138;24.768;2023-08-08T07:46:09;99716.56;;;23.45;59.86
71151;BME280;59071;42.138;24.768;2023-08-08T07:48:34;99717.28;;;23.32;59.39
71151;BME280;59071;42.138;24.768;2023-08-08T07:51:00;99717.28;;;23.32;58.65
71151;BME280;59071;42.138;24.768;2023-08-08T07:53:26;99721.69;;;22.98;58.52
71151;BME280;59071;42.138;24.768;2023-08-08T07:55:51;99728.28;;;22.87;58.55
71151;BME280;59071;42.138;24.768;2023-08-08T07:58:16;99727.16;;;22.93;59.49
71151;BME280;59071;42.138;24.768;2023-08-08T08:00:42;99720.97;;;23.17;58.90
71151;BME280;59071;42.138;24.768;2023-08-08T08:03:07;99733.97;;;23.20;58.91
71151;BME280;59071;42.138;24.768;2023-08-08T08:05:33;99731.06;;;23.11;59.17
71151;BME280;59071;42.138;24.768;2023-08-08T08:08:00;99725.44;;;23.02;59.32
71151;BME280;59071;42.138;24.768;2023-08-08T08:10:25;99736.41;;;23.21;58.58
71151;BME280;59071;42.138;24.768;2023-08-08T08:12:51;99726.78;;;23.34;58.17
71151;BME280;59071;42.138;24.768;2023-08-08T08:15:23;99721.78;;;23.17;58.89
71151;BME280;59071;42.138;24.768;2023-08-08T08:17:48;99724.75;;;23.21;59.55
71151;BME280;59071;42.138;24.768;2023-08-08T08:20:13;99722.91;;;22.48;60.38
71151;BME280;59071;42.138;24.768;2023-08-08T08:22:39;99719.28;;;22.62;60.80
71151;BME280;59071;42.138;24.768;2023-08-08T08:25:06;99726.13;;;22.55;60.10
71151;BME280;59071;42.138;24.768;2023-08-08T08:27:33;99723.03;;;22.96;58.80
71151;BME280;59071;42.138;24.768;2023-08-08T08:29:59;99727.22;;;23.17;57.62
71151;BME280;59071;42.138;24.768;2023-08-08T08:32:24;99721.78;;;23.17;54.90
71151;BME280;59071;42.138;24.768;2023-08-08T08:34:50;99721.94;;;23.26;56.17
71151;BME280;59071;42.138;24.768;2023-08-08T08:37:15;99708.09;;;23.52;55.89
71151;BME280;59071;42.138;24.768;2023-08-08T08:39:40;99713.28;;;23.72;54.98
71151;BME280;59071;42.138;24.768;2023-08-08T08:42:09;99711.69;;;23.90;53.99
71151;BME280;59071;42.138;24.768;2023-08-08T08:44:36;99710.22;;;23.98;52.75
71151;BME280;59071;42.138;24.768;2023-08-08T08:47:03;99713.38;;;24.43;52.80
71151;BME280;59071;42.138;24.768;2023-08-08T08:49:38;99706.25;;;25.27;49.95
71151;BME280;59071;42.138;24.768;2023-08-08T08:52:04;99712.13;;;25.15;49.57
71151;BME280;59071;42.138;24.768;2023-08-08T08:54:31;99709.94;;;25.59;48.86
71151;BME280;59071;42.138;24.768;2023-08-08T08:56:57;99709.41;;;25.98;46.58
71151;BME280;59071;42.138;24.768;2023-08-08T08:59:23;99700.78;;;26.19;46.10
71151;BME280;59071;42.138;24.768;2023-08-08T09:01:50;99702.53;;;26.37;45.43
71151;BME280;59071;42.138;24.768;2023-08-08T09:04:18;99700.22;;;26.53;44.29
71151;BME280;59071;42.138;24.768;2023-08-08T09:06:46;99705.66;;;27.07;44.76
71151;BME280;59071;42.138;24.768;2023-08-08T09:09:12;99697.53;;;27.24;42.86
71151;BME280;59071;42.138;24.768;2023-08-08T09:11:38;99692.97;;;27.42;42.60
71151;BME280;59071;42.138;24.768;2023-08-08T09:14:18;99698.34;;;27.74;41.67
71151;BME280;59071;42.138;24.768;2023-08-08T09:16:45;99692.59;;;27.93;40.48
71151;BME280;59071;42.138;24.768;2023-08-08T09:19:11;99686.34;;;28.18;40.67
71151;BME280;59071;42.138;24.768;2023-08-08T09:21:37;99687.28;;;28.49;39.67
71151;BME280;59071;42.138;24.768;2023-08-08T09:24:02;99686.13;;;28.67;39.87
71151;BME280;59071;42.138;24.768;2023-08-08T09:26:28;99682.63;;;28.32;37.88
71151;BME280;59071;42.138;24.768;2023-08-08T09:28:54;99670.69;;;28.62;37.42
71151;BME280;59071;42.138;24.768;2023-08-08T09:31:19;99674.50;;;28.79;36.83
71151;BME280;59071;42.138;24.768;2023-08-08T09:33:45;99666.81;;;28.63;36.64
71151;BME280;59071;42.138;24.768;2023-08-08T09:36:14;99673.25;;;28.68;37.49
71151;BME280;59071;42.138;24.768;2023-08-08T09:38:40;99676.25;;;28.83;37.23
71151;BME280;59071;42.138;24.768;2023-08-08T09:41:06;99674.72;;;28.56;37.78
71151;BME280;59071;42.138;24.768;2023-08-08T09:43:31;99655.16;;;28.84;36.01
71151;BME280;59071;42.138;24.768;2023-08-08T09:45:57;99670.66;;;29.18;36.59
71151;BME280;59071;42.138;24.768;2023-08-08T09:48:23;99668.34;;;28.91;36.90
71151;BME280;59071;42.138;24.768;2023-08-08T09:50:53;99666.56;;;29.33;35.46
71151;BME280;59071;42.138;24.768;2023-08-08T09:53:19;99666.19;;;29.43;34.57
71151;BME280;59071;42.138;24.768;2023-08-08T09:55:46;99661.78;;;29.21;34.38
71151;BME280;59071;42.138;24.768;2023-08-08T09:58:12;99651.78;;;29.26;34.63
71151;BME280;59071;42.138;24.768;2023-08-08T10:00:39;99656.97;;;29.18;35.70
71151;BME280;59071;42.138;24.768;2023-08-08T10:03:05;99663.34;;;28.93;35.27
71151;BME280;59071;42.138;24.768;2023-08-08T10:05:30;99659.88;;;29.43;33.65
71151;BME280;59071;42.138;24.768;2023-08-08T10:07:56;99655.97;;;29.23;33.07
71151;BME280;59071;42.138;24.768;2023-08-08T10:10:22;99651.28;;;29.53;33.72
71151;BME280;59071;42.138;24.768;2023-08-08T10:12:47;99652.03;;;29.62;33.24
71151;BME280;59071;42.138;24.768;2023-08-08T10:15:13;99650.41;;;29.91;33.54
71151;BME280;59071;42.138;24.768;2023-08-08T10:17:40;99656.06;;;29.86;32.69
71151;BME280;59071;42.138;24.768;2023-08-08T10:20:08;99650.59;;;29.56;32.99
71151;BME280;59071;42.138;24.768;2023-08-08T10:22:41;99657.59;;;29.75;32.01
71151;BME280;59071;42.138;24.768;2023-08-08T10:25:08;99651.22;;;30.04;32.04
71151;BME280;59071;42.138;24.768;2023-08-08T10:27:35;99644.84;;;29.79;31.86
71151;BME280;59071;42.138;24.768;2023-08-08T10:30:10;99635.69;;;29.75;31.82
71151;BME280;59071;42.138;24.768;2023-08-08T10:32:43;99648.50;;;29.83;31.32
71151;BME280;59071;42.138;24.768;2023-08-08T10:35:10;99642.50;;;29.90;30.79
71151;BME280;59071;42.138;24.768;2023-08-08T10:37:37;99643.25;;;30.11;29.58
71151;BME280;59071;42.138;24.768;2023-08-08T10:40:03;99643.06;;;30.50;29.39
71151;BME280;59071;42.138;24.768;2023-08-08T10:42:36;99625.31;;;29.80;29.65
71151;BME280;59071;42.138;24.768;2023-08-08T10:45:10;99637.03;;;29.60;31.20
71151;BME280;59071;42.138;24.768;2023-08-08T10:47:36;99633.31;;;30.07;29.80
71151;BME280;59071;42.138;24.768;2023-08-08T10:50:23;99633.06;;;30.33;29.95
71151;BME280;59071;42.138;24.768;2023-08-08T10:55:27;99631.16;;;30.91;29.71
71151;BME280;59071;42.138;24.768;2023-08-08T10:57:58;99634.56;;;30.88;29.21
71151;BME280;59071;42.138;24.768;2023-08-08T11:00:27;99629.03;;;30.30;29.51
71151;BME280;59071;42.138;24.768;2023-08-08T11:02:53;99629.50;;;29.99;29.86
71151;BME280;59071;42.138;24.768;2023-08-08T11:05:19;99623.66;;;30.00;29.95
71151;BME280;59071;42.138;24.768;2023-08-08T11:07:45;99631.75;;;30.51;30.69
71151;BME280;59071;42.138;24.768;2023-08-08T11:10:11;99627.34;;;30.71;29.45
71151;BME280;59071;42.138;24.768;2023-08-08T11:12:37;99624.84;;;30.91;28.96
71151;BME280;59071;42.138;24.768;2023-08-08T11:15:02;99618.81;;;29.85;29.60
71151;BME280;59071;42.138;24.768;2023-08-08T11:17:28;99617.56;;;30.16;30.91
71151;BME280;59071;42.138;24.768;2023-08-08T11:19:54;99611.50;;;30.44;29.21
71151;BME280;59071;42.138;24.768;2023-08-08T11:22:23;99623.56;;;30.76;29.27
71151;BME280;59071;42.138;24.768;2023-08-08T11:24:51;99616.47;;;30.87;29.93
71151;BME280;59071;42.138;24.768;2023-08-08T11:27:17;99601.59;;;30.76;28.90
71151;BME280;59071;42.138;24.768;2023-08-08T11:29:51;99612.00;;;30.58;29.77
71151;BME280;59071;42.138;24.768;2023-08-08T11:32:17;99610.50;;;30.73;28.80
71151;BME280;59071;42.138;24.768;2023-08-08T11:34:42;99612.69;;;30.79;28.46
71151;BME280;59071;42.138;24.768;2023-08-08T11:37:09;99602.78;;;29.75;28.56
71151;BME280;59071;42.138;24.768;2023-08-08T11:39:36;99597.09;;;30.47;28.16
71151;BME280;59071;42.138;24.768;2023-08-08T11:42:02;99599.06;;;30.71;28.09
71151;BME280;59071;42.138;24.768;2023-08-08T11:44:28;99598.84;;;31.25;28.70
71151;BME280;59071;42.138;24.768;2023-08-08T11:46:54;99593.47;;;31.29;28.08
71151;BME280;59071;42.138;24.768;2023-08-08T11:49:19;99589.50;;;31.67;27.96
71151;BME280;59071;42.138;24.768;2023-08-08T11:51:46;99586.00;;;31.82;27.14
71151;BME280;59071;42.138;24.768;2023-08-08T11:54:11;99577.03;;;31.85;27.08
71151;BME280;59071;42.138;24.768;2023-08-08T11:56:37;99586.78;;;31.42;27.36
71151;BME280;59071;42.138;24.768;2023-08-08T11:59:03;99584.53;;;31.20;29.01
71151;BME280;59071;42.138;24.768;2023-08-08T12:01:32;99576.25;;;31.32;27.96
71151;BME280;59071;42.138;24.768;2023-08-08T12:04:03;99578.03;;;30.75;28.20
71151;BME280;59071;42.138;24.768;2023-08-08T12:06:29;99569.19;;;30.45;28.93
71151;BME280;59071;42.138;24.768;2023-08-08T12:08:55;99574.22;;;30.55;28.95
71151;BME280;59071;42.138;24.768;2023-08-08T12:11:20;99567.47;;;30.52;29.09
71151;BME280;59071;42.138;24.768;2023-08-08T12:13:46;99562.56;;;30.83;27.53
71151;BME280;59071;42.138;24.768;2023-08-08T12:16:13;99561.00;;;30.94;27.08
71151;BME280;59071;42.138;24.768;2023-08-08T12:18:39;99551.16;;;30.93;28.13
71151;BME280;59071;42.138;24.768;2023-08-08T12:21:07;99557.97;;;31.24;27.29
71151;BME280;59071;42.138;24.768;2023-08-08T12:23:34;99544.03;;;31.04;25.90
71151;BME280;59071;42.138;24.768;2023-08-08T12:25:59;99544.03;;;31.04;26.71
71151;BME280;59071;42.138;24.768;2023-08-08T12:28:25;99548.94;;;31.23;27.67
71151;BME280;59071;42.138;24.768;2023-08-08T12:30:51;99548.38;;;31.05;27.72
71151;BME280;59071;42.138;24.768;2023-08-08T12:33:16;99550.03;;;30.24;29.25
71151;BME280;59071;42.138;24.768;2023-08-08T12:35:42;99548.13;;;30.36;29.60
71151;BME280;59071;42.138;24.768;2023-08-08T12:38:07;99557.41;;;30.56;29.96
71151;BME280;59071;42.138;24.768;2023-08-08T12:40:33;99549.06;;;30.53;28.11
71151;BME280;59071;42.138;24.768;2023-08-08T12:42:59;99544.69;;;30.39;29.15
71151;BME280;59071;42.138;24.768;2023-08-08T12:45:25;99542.03;;;30.31;30.09
71151;BME280;59071;42.138;24.768;2023-08-08T12:47:50;99545.53;;;30.19;30.02
71151;BME280;59071;42.138;24.768;2023-08-08T12:50:15;99544.69;;;30.39;28.99